createdAt,value
2018-12-19T00:00:08.033Z,16.53
2018-12-19T00:02:39.268Z,16.60
2018-12-19T00:05:16.980Z,15.27
2018-12-19T00:07:48.198Z,16.77
2018-12-19T00:10:17.098Z,16.00
2018-12-19T00:12:48.305Z,17.50
2018-12-19T00:15:28.989Z,15.73
2018-12-19T00:18:02.061Z,15.27
2018-12-19T00:20:35.554Z,14.87
2018-12-19T00:23:06.070Z,12.67
2018-12-19T00:25:37.038Z,14.87
2018-12-19T00:28:07.493Z,14.57
2018-12-19T00:30:44.616Z,13.93
2018-12-19T00:33:15.842Z,13.77
2018-12-19T00:35:44.804Z,13.30
2018-12-19T00:38:15.772Z,14.50
2018-12-19T00:40:46.746Z,18.27
2018-12-19T00:43:17.949Z,18.27
2018-12-19T00:45:55.117Z,22.07
2018-12-19T00:48:24.717Z,15.30
2018-12-19T00:50:55.909Z,13.40
2018-12-19T00:53:27.065Z,20.43
2018-12-19T00:56:00.609Z,16.50
2018-12-19T00:58:32.245Z,14.83
2018-12-19T01:01:06.028Z,20.33
2018-12-19T01:03:37.253Z,20.83
2018-12-19T01:06:06.654Z,27.60
2018-12-19T01:08:48.445Z,20.80
2018-12-19T01:11:21.593Z,15.50
2018-12-19T01:13:50.846Z,17.33
2018-12-19T01:16:22.166Z,19.93
2018-12-19T01:19:00.033Z,19.03
2018-12-19T01:21:29.279Z,16.30
2018-12-19T01:24:06.311Z,15.03
2018-12-19T01:26:37.041Z,15.77
2018-12-19T01:29:14.028Z,15.20
2018-12-19T01:31:47.330Z,17.60
2018-12-19T01:34:17.695Z,14.90
2018-12-19T01:36:55.595Z,16.73
2018-12-19T01:39:27.022Z,15.67
2018-12-19T01:41:58.292Z,14.50
2018-12-19T01:44:35.681Z,17.13
2018-12-19T01:47:04.913Z,13.80
2018-12-19T01:49:36.121Z,14.10
2018-12-19T01:52:07.458Z,9.30
2018-12-19T01:54:48.577Z,9.50
2018-12-19T01:57:19.641Z,9.27
2018-12-19T01:59:50.518Z,9.63
2018-12-19T02:02:21.849Z,12.20
2018-12-19T02:04:59.691Z,10.20
2018-12-19T02:07:34.188Z,8.70
2018-12-19T02:10:04.334Z,10.67
2018-12-19T02:12:33.617Z,9.37
2018-12-19T02:15:15.221Z,8.37
2018-12-19T02:17:46.158Z,8.13
2018-12-19T02:20:21.476Z,11.63
2018-12-19T02:22:57.460Z,7.63
2018-12-19T02:25:27.833Z,9.80
2018-12-19T02:27:57.151Z,8.83
2018-12-19T02:30:34.970Z,7.67
2018-12-19T02:33:04.340Z,10.23
2018-12-19T02:35:38.232Z,7.83
2018-12-19T02:38:09.754Z,9.87
2018-12-19T02:40:40.226Z,8.90
2018-12-19T02:43:15.361Z,8.40
2018-12-19T02:45:44.228Z,7.70
2018-12-19T02:48:13.917Z,8.20
2018-12-19T02:50:44.911Z,6.87
2018-12-19T02:53:13.868Z,7.67
2018-12-19T02:55:45.448Z,5.90
2018-12-19T02:58:16.230Z,6.60
2018-12-19T03:00:47.698Z,10.27
2018-12-19T03:03:19.029Z,7.87
2018-12-19T03:05:49.933Z,10.07
2018-12-19T03:08:20.457Z,7.13
2018-12-19T03:10:57.649Z,10.03
2018-12-19T03:13:30.056Z,8.90
2018-12-19T03:16:04.102Z,6.50
2018-12-19T03:18:37.841Z,8.70
2018-12-19T03:21:08.964Z,7.53
2018-12-19T03:23:40.077Z,7.07
2018-12-19T03:26:16.044Z,8.07
2018-12-19T03:28:45.498Z,7.23
2018-12-19T03:31:16.024Z,10.90
2018-12-19T03:33:46.466Z,6.63
2018-12-19T03:36:16.909Z,7.80
2018-12-19T03:38:57.507Z,7.03
2018-12-19T03:41:28.115Z,8.30
2018-12-19T03:43:58.972Z,8.17
2018-12-19T03:46:28.281Z,8.23
2018-12-19T03:49:06.172Z,9.70
2018-12-19T03:51:37.469Z,8.70
2018-12-19T03:54:08.406Z,8.30
2018-12-19T03:56:44.279Z,9.53
2018-12-19T03:59:15.264Z,8.30
2018-12-19T04:01:48.917Z,7.60
2018-12-19T04:04:20.221Z,8.63
2018-12-19T04:06:53.930Z,8.87
2018-12-19T04:09:25.094Z,7.47
2018-12-19T04:11:58.521Z,8.50
2018-12-19T04:14:30.393Z,10.10
2018-12-19T04:17:01.695Z,8.20
2018-12-19T04:19:35.721Z,8.73
2018-12-19T04:22:09.232Z,11.17
2018-12-19T04:24:39.602Z,10.37
2018-12-19T04:27:08.584Z,11.63
2018-12-19T04:29:39.909Z,8.97
2018-12-19T04:32:10.494Z,11.53
2018-12-19T04:34:41.250Z,11.63
2018-12-19T04:37:12.275Z,11.67
2018-12-19T04:39:48.272Z,10.17
2018-12-19T04:42:21.545Z,9.70
2018-12-19T04:44:52.829Z,10.63
2018-12-19T04:47:36.753Z,10.33
2018-12-19T04:50:07.753Z,12.83
2018-12-19T04:52:38.691Z,9.83
2018-12-19T04:55:09.915Z,9.33
2018-12-19T04:57:37.359Z,8.43
2018-12-19T05:00:13.770Z,11.83
2018-12-19T05:02:45.090Z,11.37
2018-12-19T05:05:16.035Z,9.97
2018-12-19T05:07:48.405Z,9.57
2018-12-19T05:10:18.796Z,10.57
2018-12-19T05:12:49.700Z,11.13
2018-12-19T05:15:32.819Z,9.13
2018-12-19T05:18:03.245Z,11.33
2018-12-19T05:20:37.560Z,11.87
2018-12-19T05:23:08.848Z,9.27
2018-12-19T05:25:42.729Z,11.80
2018-12-19T05:28:13.925Z,9.07
2018-12-19T05:30:47.455Z,10.33
2018-12-19T05:33:18.568Z,8.60
2018-12-19T05:35:49.631Z,7.90
2018-12-19T05:38:23.028Z,12.97
2018-12-19T05:40:51.818Z,8.60
2018-12-19T05:43:22.972Z,8.33
2018-12-19T05:46:00.716Z,7.87
2018-12-19T05:48:29.869Z,8.77
2018-12-19T05:51:00.773Z,11.37
2018-12-19T05:53:31.538Z,9.50
2018-12-19T05:56:00.455Z,8.40
2018-12-19T05:58:29.621Z,8.73
2018-12-19T06:01:06.708Z,9.30
2018-12-19T06:03:37.891Z,9.10
2018-12-19T06:06:11.793Z,15.03
2018-12-19T06:08:42.784Z,13.30
2018-12-19T06:11:11.639Z,11.87
2018-12-19T06:13:40.982Z,10.63
2018-12-19T06:16:11.595Z,11.73
2018-12-19T06:18:52.132Z,12.20
2018-12-19T06:21:22.597Z,12.20
2018-12-19T06:23:53.897Z,17.57
2018-12-19T06:26:31.777Z,17.47
2018-12-19T06:29:03.016Z,16.07
2018-12-19T06:31:34.041Z,18.13
2018-12-19T06:34:03.386Z,13.63
2018-12-19T06:36:44.122Z,15.90
2018-12-19T06:39:15.937Z,15.50
2018-12-19T06:41:46.404Z,17.43
2018-12-19T06:44:40.872Z,15.80
2018-12-19T06:47:10.850Z,17.37
2018-12-19T06:49:51.365Z,16.40
2018-12-19T06:52:27.128Z,17.87
2018-12-19T06:54:58.089Z,21.33
2018-12-19T06:57:26.973Z,19.70
2018-12-19T07:00:00.589Z,16.07
2018-12-19T07:02:34.400Z,17.30
2018-12-19T07:05:05.032Z,14.93
2018-12-19T07:07:38.824Z,15.60
2018-12-19T07:10:08.950Z,14.47
2018-12-19T07:12:38.047Z,15.03
2018-12-19T07:15:11.776Z,13.13
2018-12-19T07:17:43.340Z,17.93
2018-12-19T07:20:12.477Z,17.17
2018-12-19T07:22:42.920Z,14.97
2018-12-19T07:25:22.441Z,14.53
2018-12-19T07:27:51.198Z,15.90
2018-12-19T07:30:32.020Z,17.17
2018-12-19T07:33:03.876Z,18.37
2018-12-19T07:35:35.702Z,15.63
2018-12-19T07:38:10.560Z,15.10
2018-12-19T07:40:45.801Z,15.43
2018-12-19T07:43:16.346Z,15.07
2018-12-19T07:45:47.612Z,16.93
2018-12-19T07:58:33.602Z,14.93
2018-12-19T08:01:04.669Z,15.13
2018-12-19T08:03:35.766Z,14.53
2018-12-19T08:06:13.464Z,15.37
2018-12-19T08:08:44.801Z,12.83
2018-12-19T08:11:15.662Z,15.03
2018-12-19T08:13:46.178Z,15.30
2018-12-19T08:16:26.699Z,17.07
2018-12-19T08:18:57.279Z,16.20
2018-12-19T08:21:26.041Z,18.87
2018-12-19T08:24:01.225Z,16.30
2018-12-19T08:26:32.472Z,16.63
2018-12-19T08:29:03.549Z,18.57
2018-12-19T08:31:37.644Z,18.60
2018-12-19T08:34:11.713Z,17.03
2018-12-19T08:36:43.658Z,17.80
2018-12-19T08:39:14.282Z,18.30
2018-12-19T08:41:47.584Z,15.40
2018-12-19T08:44:16.791Z,16.33
2018-12-19T08:46:54.286Z,16.60
2018-12-19T08:49:27.908Z,17.50
2018-12-19T08:51:58.628Z,18.10
2018-12-19T08:54:36.164Z,17.13
2018-12-19T08:57:09.444Z,17.60
2018-12-19T08:59:40.546Z,16.53
2018-12-19T09:02:12.056Z,17.83
2018-12-19T09:04:43.709Z,18.07
2018-12-19T09:07:12.841Z,16.67
2018-12-19T09:09:43.795Z,16.70
2018-12-19T09:12:14.699Z,20.97
2018-12-19T09:14:45.901Z,20.57
2018-12-19T09:17:26.638Z,18.13
2018-12-19T09:19:58.473Z,18.90
2018-12-19T09:22:29.836Z,18.07
2018-12-19T09:25:06.296Z,15.90
2018-12-19T09:27:35.344Z,17.43
2018-12-19T09:30:05.900Z,18.87
2018-12-19T09:32:36.773Z,15.83
2018-12-19T09:35:10.743Z,15.47
2018-12-19T09:37:41.792Z,14.73
2018-12-19T09:40:15.561Z,16.17
2018-12-19T09:42:46.045Z,17.37
2018-12-19T09:45:16.933Z,17.43
2018-12-19T09:47:46.018Z,22.53
2018-12-19T09:50:14.913Z,56.53
2018-12-19T09:52:45.485Z,23.73
2018-12-19T09:55:16.765Z,22.67
2018-12-19T09:57:45.486Z,16.53
2018-12-19T10:00:27.414Z,15.67
2018-12-19T10:02:56.214Z,13.70
2018-12-19T10:05:30.857Z,15.47
2018-12-19T10:08:02.452Z,16.23
2018-12-19T10:10:31.116Z,17.23
2018-12-19T10:13:06.871Z,15.60
2018-12-19T10:15:38.060Z,14.53
2018-12-19T10:18:09.358Z,17.17
2018-12-19T10:20:40.174Z,16.13
2018-12-19T10:23:11.462Z,16.57
2018-12-19T10:25:52.005Z,16.53
2018-12-19T10:28:22.510Z,18.23
2018-12-19T10:30:51.790Z,14.23
2018-12-19T10:33:22.385Z,14.80
2018-12-19T10:35:56.123Z,13.17
2018-12-19T10:38:27.332Z,14.47
2018-12-19T10:40:58.414Z,14.27
2018-12-19T10:43:28.934Z,14.93
2018-12-19T10:46:00.121Z,15.73
2018-12-19T10:48:33.728Z,12.20
2018-12-19T10:51:04.958Z,18.50
2018-12-19T10:53:36.292Z,14.73
2018-12-19T10:56:12.740Z,13.80
2018-12-19T10:58:43.588Z,16.43
2018-12-19T11:01:12.498Z,16.03
2018-12-19T11:03:45.617Z,14.97
2018-12-19T11:06:17.377Z,15.53
2018-12-19T11:08:51.329Z,12.67
2018-12-19T11:11:20.627Z,15.50
2018-12-19T11:13:52.784Z,15.67
2018-12-19T11:16:30.705Z,15.13
2018-12-19T11:19:08.421Z,16.13
2018-12-19T11:21:37.784Z,16.63
2018-12-19T11:24:09.985Z,15.37
2018-12-19T11:26:43.606Z,14.23
2018-12-19T11:29:14.588Z,17.33
2018-12-19T11:31:45.500Z,16.87
2018-12-19T11:34:18.847Z,15.43
2018-12-19T11:36:49.766Z,15.13
2018-12-19T11:39:27.597Z,15.50
2018-12-19T11:42:00.781Z,17.10
2018-12-19T11:44:29.967Z,15.03
2018-12-19T11:47:10.665Z,17.40
2018-12-19T11:49:41.273Z,15.77
2018-12-19T11:52:10.353Z,16.17
2018-12-19T11:54:41.543Z,17.27
2018-12-19T11:57:22.028Z,16.90
2018-12-19T11:59:53.204Z,17.23
2018-12-19T12:02:24.497Z,16.23
2018-12-19T12:05:01.525Z,15.57
2018-12-19T12:07:32.934Z,16.73
2018-12-19T12:12:59.311Z,16.33
2018-12-19T12:15:37.192Z,16.30
2018-12-19T12:18:07.612Z,18.43
2018-12-19T12:20:36.897Z,17.30
2018-12-19T12:23:06.022Z,19.53
2018-12-19T12:25:39.991Z,19.40
2018-12-19T12:28:13.885Z,20.43
2018-12-19T12:30:43.077Z,18.20
2018-12-19T12:33:13.701Z,17.33
2018-12-19T12:35:43.461Z,18.17
2018-12-19T12:38:20.708Z,16.57
2018-12-19T12:40:51.089Z,19.20
2018-12-19T12:43:22.098Z,19.43
2018-12-19T12:45:56.607Z,20.03
2018-12-19T12:48:25.516Z,20.07
2018-12-19T12:50:56.768Z,18.80
2018-12-19T12:53:28.256Z,18.03
2018-12-19T12:55:57.464Z,22.33
2018-12-19T12:58:30.824Z,18.97
2018-12-19T13:00:59.696Z,16.37
2018-12-19T13:03:30.857Z,18.73
2018-12-19T13:06:05.560Z,18.80
2018-12-19T13:08:35.905Z,17.27
2018-12-19T13:11:07.353Z,17.50
2018-12-19T13:13:41.868Z,18.77
2018-12-19T13:16:12.658Z,17.67
2018-12-19T13:18:50.500Z,18.77
2018-12-19T13:21:23.773Z,20.27
2018-12-19T13:23:53.133Z,19.90
2018-12-19T13:26:27.173Z,20.93
2018-12-19T13:28:58.199Z,20.50
2018-12-19T13:31:41.549Z,18.20
2018-12-19T13:34:10.600Z,21.33
2018-12-19T13:36:48.385Z,21.47
2018-12-19T13:39:19.731Z,19.37
2018-12-19T13:41:51.049Z,19.27
2018-12-19T13:44:31.680Z,20.27
2018-12-19T13:47:02.162Z,18.63
2018-12-19T13:49:33.228Z,20.93
2018-12-19T13:52:02.029Z,21.07
2018-12-19T13:54:34.040Z,20.70
2018-12-19T13:57:11.941Z,20.13
2018-12-19T13:59:43.140Z,22.50
2018-12-19T14:02:17.681Z,20.80
2018-12-19T14:04:48.093Z,22.23
2018-12-19T14:07:19.134Z,21.97
2018-12-19T14:09:50.540Z,22.13
2018-12-19T14:12:21.746Z,20.73
2018-12-19T14:14:50.493Z,23.00
2018-12-19T14:17:24.232Z,24.90
2018-12-19T14:19:53.647Z,23.80
2018-12-19T14:22:22.965Z,24.67
2018-12-19T14:24:57.456Z,23.30
2018-12-19T14:27:31.541Z,24.63
2018-12-19T14:30:02.787Z,23.27
2018-12-19T14:32:39.945Z,24.27
2018-12-19T14:35:10.787Z,20.93
2018-12-19T14:37:48.545Z,20.67
2018-12-19T14:40:22.601Z,22.17
2018-12-19T14:42:56.567Z,23.23
2018-12-19T14:45:27.938Z,22.10
2018-12-19T14:48:04.984Z,22.50
2018-12-19T14:50:36.290Z,22.23
2018-12-19T14:53:07.357Z,24.20
2018-12-19T14:55:38.320Z,21.83
2018-12-19T14:58:07.214Z,21.93
2018-12-19T15:00:36.332Z,22.97
2018-12-19T15:03:07.151Z,24.73
2018-12-19T15:05:44.816Z,24.60
2018-12-19T15:08:16.509Z,19.90
2018-12-19T15:10:46.984Z,21.53
2018-12-19T15:13:16.281Z,19.10
2018-12-19T15:15:59.981Z,22.63
2018-12-19T15:18:33.159Z,19.73
2018-12-19T15:21:02.246Z,19.10
2018-12-19T15:23:36.888Z,24.97
2018-12-19T15:26:12.955Z,25.40
2018-12-19T15:28:46.981Z,23.17
2018-12-19T15:31:18.149Z,23.13
2018-12-19T15:33:49.208Z,24.43
2018-12-19T15:36:18.406Z,23.90
2018-12-19T15:38:49.004Z,25.57
2018-12-19T15:41:19.996Z,25.03
2018-12-19T15:43:50.996Z,24.53
2018-12-19T15:46:21.957Z,24.63
2018-12-19T15:48:52.861Z,23.57
2018-12-19T15:51:24.197Z,19.97
2018-12-19T15:53:57.679Z,22.87
2018-12-19T15:56:30.957Z,22.00
2018-12-19T15:59:02.257Z,23.43
2018-12-19T16:01:36.040Z,20.87
2018-12-19T16:04:07.220Z,22.90
2018-12-19T16:06:38.649Z,24.13
2018-12-19T16:09:09.359Z,23.50
2018-12-19T16:11:40.639Z,23.83
2018-12-19T16:14:15.252Z,25.83
2018-12-19T16:16:50.101Z,21.83
2018-12-19T16:19:20.888Z,24.87
2018-12-19T16:21:51.974Z,23.97
2018-12-19T16:24:21.052Z,28.53
2018-12-19T16:26:51.410Z,25.97
2018-12-19T16:29:28.930Z,25.37
2018-12-19T16:31:59.805Z,35.20
2018-12-19T16:34:28.602Z,37.97
2018-12-19T16:37:05.749Z,30.97
2018-12-19T16:39:37.240Z,27.87
2018-12-19T16:42:06.402Z,34.40
2018-12-19T16:44:37.682Z,26.10
2018-12-19T16:47:08.848Z,21.50
2018-12-19T16:49:39.516Z,22.13
2018-12-19T16:52:10.592Z,22.30
2018-12-19T16:54:39.668Z,23.03
2018-12-19T16:57:10.547Z,26.67
2018-12-19T16:59:41.734Z,28.73
2018-12-19T17:02:12.956Z,28.10
2018-12-19T17:04:51.196Z,24.60
2018-12-19T17:07:22.303Z,24.53
2018-12-19T17:10:01.203Z,21.43
2018-12-19T17:12:34.465Z,22.37
2018-12-19T17:15:08.489Z,19.23
2018-12-19T17:17:37.359Z,20.20
2018-12-19T17:20:12.391Z,24.13
2018-12-19T17:22:42.953Z,20.10
2018-12-19T17:25:17.340Z,21.93
2018-12-19T17:27:55.311Z,19.33
2018-12-19T17:30:24.024Z,20.30
2018-12-19T17:32:57.840Z,19.07
2018-12-19T17:35:29.093Z,19.97
2018-12-19T17:37:59.744Z,17.63
2018-12-19T17:40:28.663Z,17.13
2018-12-19T17:42:59.858Z,19.77
2018-12-19T17:45:35.813Z,21.80
2018-12-19T17:48:06.860Z,18.80
2018-12-19T17:50:47.617Z,21.63
2018-12-19T17:53:17.014Z,26.30
2018-12-19T17:55:51.643Z,25.50
2018-12-19T17:58:22.553Z,31.53
2018-12-19T18:00:51.458Z,39.43
2018-12-19T18:03:22.739Z,31.20
2018-12-19T18:05:53.972Z,24.00
2018-12-19T18:08:25.409Z,19.10
2018-12-19T18:10:56.104Z,19.87
2018-12-19T18:13:29.448Z,18.87
2018-12-19T18:16:04.070Z,18.50
2018-12-19T18:18:35.744Z,17.70
2018-12-19T18:21:07.063Z,17.80
2018-12-19T18:23:38.702Z,17.30
2018-12-19T18:26:07.508Z,19.97
2018-12-19T18:28:39.809Z,19.63
2018-12-19T18:31:14.940Z,21.10
2018-12-19T18:33:48.507Z,19.50
2018-12-19T18:36:19.469Z,18.53
2018-12-19T18:38:50.064Z,18.77
2018-12-19T18:41:21.541Z,18.13
2018-12-19T18:43:52.425Z,22.73
2018-12-19T18:46:29.509Z,21.93
2018-12-19T18:49:00.804Z,19.77
2018-12-19T18:51:31.885Z,19.50
2018-12-19T18:54:06.408Z,20.00
2018-12-19T18:56:37.396Z,22.33
2018-12-19T18:59:07.981Z,18.83
2018-12-19T19:01:38.803Z,21.10
2018-12-19T19:04:10.001Z,19.80
2018-12-19T19:06:44.019Z,17.93
2018-12-19T19:09:15.011Z,20.33
2018-12-19T19:11:46.109Z,18.77
2018-12-19T19:17:12.132Z,19.13
2018-12-19T19:19:43.356Z,20.23
2018-12-19T19:22:12.438Z,21.27
2018-12-19T19:24:43.408Z,21.70
2018-12-19T19:27:14.293Z,17.57
2018-12-19T19:29:47.997Z,19.73
2018-12-19T19:32:18.862Z,20.53
2018-12-19T19:34:52.739Z,20.20
2018-12-19T19:37:23.351Z,21.20
2018-12-19T19:39:54.136Z,22.50
2018-12-19T19:42:28.221Z,23.90
2018-12-19T19:44:56.942Z,23.30
2018-12-19T19:47:36.951Z,20.53
2018-12-19T19:50:07.412Z,24.43
2018-12-19T19:52:38.486Z,22.67
2018-12-19T19:55:16.229Z,21.77
2018-12-19T19:57:46.009Z,24.10
2018-12-19T20:00:18.622Z,25.43
2018-12-19T20:02:47.894Z,25.47
2018-12-19T20:05:25.340Z,26.50
2018-12-19T20:07:54.456Z,24.70
2018-12-19T20:10:24.324Z,26.87
2018-12-19T20:13:00.046Z,31.10
2018-12-19T20:15:30.733Z,26.50
2018-12-19T20:18:05.472Z,25.57
2018-12-19T20:20:34.539Z,24.97
2018-12-19T20:23:03.554Z,24.13
2018-12-19T20:25:41.554Z,26.83
2018-12-19T20:28:11.924Z,24.43
2018-12-19T20:30:45.552Z,25.33
2018-12-19T20:33:14.626Z,24.93
2018-12-19T20:35:48.101Z,22.07
2018-12-19T20:38:19.396Z,26.67
2018-12-19T20:40:50.846Z,28.20
2018-12-19T20:43:21.257Z,28.60
2018-12-19T20:45:59.045Z,24.63
2018-12-19T20:48:30.229Z,31.90
2018-12-19T20:51:06.358Z,32.40
2018-12-19T20:53:40.256Z,34.37
2018-12-19T20:56:11.426Z,31.00
2018-12-19T20:58:40.406Z,26.40
2018-12-19T21:01:11.498Z,27.27
2018-12-19T21:03:42.344Z,26.40
2018-12-19T21:06:13.521Z,26.73
2018-12-19T21:08:42.457Z,31.63
2018-12-19T21:11:13.779Z,28.73
2018-12-19T21:13:46.927Z,27.80
2018-12-19T21:16:28.277Z,25.97
2018-12-19T21:19:03.958Z,26.40
2018-12-19T21:21:34.613Z,24.67
2018-12-19T21:24:05.501Z,26.80
2018-12-19T21:26:34.329Z,25.83
2018-12-19T21:29:12.250Z,29.60
2018-12-19T21:31:46.096Z,25.07
2018-12-19T21:34:17.090Z,27.80
2018-12-19T21:36:48.118Z,29.77
2018-12-19T21:39:21.529Z,27.80
2018-12-19T21:41:52.186Z,26.87
2018-12-19T21:44:23.159Z,26.27
2018-12-19T21:46:54.632Z,30.90
2018-12-19T21:49:24.188Z,32.63
2018-12-19T21:51:55.460Z,39.37
2018-12-19T21:54:25.831Z,32.27
2018-12-19T21:56:59.736Z,33.40
2018-12-19T21:59:31.012Z,31.10
2018-12-19T22:02:04.825Z,30.13
2018-12-19T22:04:38.777Z,27.03
2018-12-19T22:07:09.916Z,24.60
2018-12-19T22:09:52.487Z,24.73
2018-12-19T22:12:22.987Z,24.43
2018-12-19T22:14:54.948Z,24.90
2018-12-19T22:20:39.486Z,23.47
2018-12-19T22:23:11.431Z,25.03
2018-12-19T22:25:42.724Z,23.53
2018-12-19T22:28:15.067Z,24.53
2018-12-19T22:30:46.412Z,26.17
2018-12-19T22:33:17.773Z,25.30
2018-12-19T22:35:51.506Z,26.27
2018-12-19T22:38:29.601Z,28.23
2018-12-19T22:41:03.879Z,27.87
2018-12-19T22:43:35.104Z,25.93
2018-12-19T22:46:16.325Z,25.23
2018-12-19T22:48:46.901Z,27.97
2018-12-19T22:51:17.873Z,28.27
2018-12-19T22:53:49.097Z,27.13
2018-12-19T22:56:26.935Z,26.93
2018-12-19T22:59:02.706Z,28.70
2018-12-19T23:01:37.060Z,24.17
2018-12-19T23:04:08.864Z,27.67
2018-12-19T23:06:39.429Z,28.87
2018-12-19T23:09:08.386Z,24.23
2018-12-19T23:11:37.453Z,26.07
2018-12-19T23:14:15.706Z,23.87
2018-12-19T23:16:46.701Z,35.20
2018-12-19T23:19:18.429Z,27.20
2018-12-19T23:21:51.605Z,27.27
2018-12-19T23:24:20.852Z,32.37
2018-12-19T23:26:56.860Z,29.87
2018-12-19T23:29:27.417Z,30.50
2018-12-19T23:31:57.007Z,32.30
2018-12-19T23:34:42.271Z,29.77
2018-12-19T23:37:11.567Z,28.03
2018-12-19T23:39:40.524Z,31.00
2018-12-19T23:42:11.417Z,29.97
2018-12-19T23:44:42.792Z,33.67
2018-12-19T23:47:17.465Z,30.30
2018-12-19T23:49:46.724Z,29.53
2018-12-19T23:52:17.925Z,29.80
2018-12-19T23:54:51.456Z,27.23
2018-12-19T23:57:22.423Z,31.07
